Time;durP1;ratioP1;P1;durP2;ratioP2;P2;SDS_P1;SDS_P2;PMS_P1;PMS_P2;Temp;Humidity;BMP_temperature;BMP_pressure;BME280_temperature;BME280_humidity;BME280_pressure;Samples;Min_cycle;Max_cycle;Signal;HPM_P1;HPM_P2
2023/08/13 00:00:41;;;;;;;8.53;7.83;;;;;;;21.22;100.00;156820.53;5025532;28;20474;-80
2023/08/13 00:03:08;;;;;;;9.00;8.10;;;;;;;21.17;100.00;156807.47;5045565;28;20458;-80
2023/08/13 00:05:34;;;;;;;9.50;8.70;;;;;;;21.16;100.00;156806.16;5012505;28;20531;-80
2023/08/13 00:08:01;;;;;;;10.67;8.90;;;;;;;21.12;100.00;156795.75;5046464;28;20443;-80
2023/08/13 00:10:28;;;;;;;8.23;7.40;;;;;;;21.09;100.00;156786.59;5026731;28;20474;-80
2023/08/13 00:12:55;;;;;;;8.13;7.43;;;;;;;21.04;100.00;156774.81;5046179;28;20458;-80
2023/08/13 00:15:22;;;;;;;7.90;7.20;;;;;;;21.02;100.00;156768.28;5029396;28;20868;-80
2023/08/13 00:17:49;;;;;;;7.27;6.57;;;;;;;20.99;100.00;156761.75;5031964;28;20462;-80
2023/08/13 00:20:16;;;;;;;7.20;6.50;;;;;;;20.97;100.00;156755.25;5046440;28;20463;-80
2023/08/13 00:22:42;;;;;;;7.40;6.70;;;;;;;20.97;100.00;156755.25;5031137;28;20574;-80
2023/08/13 00:25:09;;;;;;;6.60;6.00;;;;;;;20.94;100.00;156748.69;5045428;28;20552;-80
2023/08/13 00:27:36;;;;;;;6.63;6.03;;;;;;;20.96;100.00;156753.94;5033287;28;20447;-80
2023/08/13 00:30:05;;;;;;;6.30;5.70;;;;;;;20.96;100.00;156752.63;5031267;28;20554;-80
2023/08/13 00:32:32;;;;;;;6.63;6.03;;;;;;;20.93;100.00;156744.78;5031021;28;20936;-80
2023/08/13 00:34:58;;;;;;;6.20;5.57;;;;;;;20.88;100.00;156733.06;5030833;28;20869;-79
2023/08/13 00:37:25;;;;;;;6.93;6.30;;;;;;;20.88;100.00;156731.75;5030154;28;20489;-80
2023/08/13 00:39:52;;;;;;;6.50;6.00;;;;;;;20.83;100.00;156718.69;5033465;28;20459;-80
2023/08/13 00:42:18;;;;;;;7.20;6.50;;;;;;;20.80;100.00;156710.84;5029024;28;20960;-80
2023/08/13 00:45:01;;;;;;;6.57;6.00;;;;;;;20.78;100.00;156705.66;5049656;28;20451;-80
2023/08/13 00:47:29;;;;;;;7.13;6.33;;;;;;;20.78;100.00;156705.66;5025150;28;20809;-80
2023/08/13 00:49:56;;;;;;;7.00;6.40;;;;;;;20.75;100.00;156697.81;5008875;28;20494;-80
2023/08/13 00:52:23;;;;;;;6.03;5.53;;;;;;;20.73;100.00;156692.63;5015588;28;20458;-80
2023/08/13 00:54:49;;;;;;;7.30;6.03;;;;;;;20.69;100.00;156682.16;5028672;28;20481;-80
2023/08/13 00:57:16;;;;;;;6.73;6.13;;;;;;;20.70;100.00;156684.78;5035641;28;20854;-80
2023/08/13 00:59:43;;;;;;;6.63;5.40;;;;;;;20.69;100.00;156683.47;5013223;28;20953;-80
2023/08/13 01:02:10;;;;;;;5.90;5.40;;;;;;;20.64;100.00;156671.72;5042662;28;20505;-80
2023/08/13 01:04:38;;;;;;;6.60;5.90;;;;;;;20.60;100.00;156661.28;5047290;28;20542;-80
2023/08/13 01:07:09;;;;;;;6.70;5.83;;;;;;;20.57;100.00;156653.44;5028040;28;20992;-80
2023/08/13 01:09:42;;;;;;;7.60;5.90;;;;;;;20.56;100.00;156650.84;5031210;28;20463;-80
2023/08/13 01:12:17;;;;;;;6.33;5.77;;;;;;;20.52;100.00;156640.41;5032347;28;20452;-80
2023/08/13 01:14:53;;;;;;;6.60;6.00;;;;;;;20.51;100.00;156637.81;5019793;28;20810;-80
2023/08/13 01:17:23;;;;;;;6.77;6.17;;;;;;;20.47;100.00;156627.34;5014070;28;20526;-80
2023/08/13 01:19:51;;;;;;;7.70;6.20;;;;;;;20.42;100.00;156613.00;5026550;28;20467;-80
2023/08/13 01:22:23;;;;;;;6.40;5.80;;;;;;;20.38;100.00;156603.91;5031100;28;20457;-80
2023/08/13 01:24:50;;;;;;;6.77;6.17;;;;;;;20.36;100.00;156598.66;5014862;28;20450;-80
2023/08/13 01:27:19;;;;;;;7.10;6.10;;;;;;;20.36;100.00;156598.66;5017504;28;20578;-80
2023/08/13 01:29:48;;;;;;;7.80;5.87;;;;;;;20.34;100.00;156593.44;5049120;28;20467;-80
2023/08/13 01:32:17;;;;;;;6.87;6.27;;;;;;;20.32;100.00;156586.94;5028797;28;20452;-81
2023/08/13 01:34:44;;;;;;;7.33;6.43;;;;;;;20.32;100.00;156586.94;5027704;28;20997;-80
2023/08/13 01:37:11;;;;;;;6.53;6.03;;;;;;;20.31;100.00;156584.31;5003564;28;20546;-79
2023/08/13 01:39:39;;;;;;;6.13;5.63;;;;;;;20.30;100.00;156583.03;5031313;28;20458;-80
2023/08/13 01:42:10;;;;;;;7.10;6.40;;;;;;;20.30;100.00;156581.72;5030965;28;20852;-79
2023/08/13 01:44:36;;;;;;;7.20;5.87;;;;;;;20.30;100.00;156583.03;5048103;28;20567;-79
2023/08/13 01:47:04;;;;;;;6.40;5.80;;;;;;;20.28;100.00;156576.50;5021626;28;20467;-79
2023/08/13 01:49:31;;;;;;;6.90;6.30;;;;;;;20.24;100.00;156567.38;5030471;28;20791;-80
2023/08/13 01:51:58;;;;;;;5.77;5.27;;;;;;;20.24;100.00;156567.38;5027328;28;20451;-79
2023/08/13 01:54:24;;;;;;;6.40;5.80;;;;;;;20.22;100.00;156562.13;5025644;28;20467;-80
2023/08/13 01:56:52;;;;;;;6.77;6.17;;;;;;;20.21;100.00;156558.19;5030785;28;20508;-79
2023/08/13 01:59:19;;;;;;;6.70;6.07;;;;;;;20.25;100.00;156568.69;5009638;28;20995;-79
2023/08/13 02:01:46;;;;;;;6.40;5.80;;;;;;;20.20;100.00;156556.84;5025750;28;20521;-79
2023/08/13 02:04:12;;;;;;;5.87;5.37;;;;;;;20.21;100.00;156559.50;5022176;28;20847;-79
2023/08/13 02:06:39;;;;;;;6.33;5.83;;;;;;;20.20;100.00;156556.84;5045164;28;20859;-79
2023/08/13 02:09:06;;;;;;;6.90;6.20;;;;;;;20.23;100.00;156563.38;5044353;28;20994;-79
2023/08/13 02:11:33;;;;;;;8.40;6.23;;;;;;;20.21;100.00;156559.50;5026952;28;20459;-79
2023/08/13 02:14:01;;;;;;;6.37;5.87;;;;;;;20.22;100.00;156560.81;5010961;28;20463;-79
2023/08/13 02:16:28;;;;;;;6.57;5.90;;;;;;;20.21;100.00;156559.50;5018782;28;20904;-79
2023/08/13 02:18:54;;;;;;;6.37;5.77;;;;;;;20.21;100.00;156558.19;5030088;28;20663;-80
2023/08/13 02:21:22;;;;;;;6.47;5.87;;;;;;;20.21;100.00;156558.19;5027851;28;20474;-79
2023/08/13 02:23:49;;;;;;;6.03;5.53;;;;;;;20.21;100.00;156558.19;5028427;28;21100;-80
2023/08/13 02:26:16;;;;;;;6.30;5.70;;;;;;;20.22;100.00;156560.81;5046834;28;20431;-80
2023/08/13 02:28:46;;;;;;;6.53;5.93;;;;;;;20.22;100.00;156560.81;5024819;28;20451;-80
2023/08/13 02:31:14;;;;;;;6.30;5.70;;;;;;;20.24;100.00;156566.06;5027652;28;20550;-79
2023/08/13 02:33:41;;;;;;;6.13;5.60;;;;;;;20.25;100.00;156568.69;5029868;28;20569;-80
2023/08/13 02:36:08;;;;;;;7.07;6.37;;;;;;;20.24;100.00;156567.38;5047976;28;20471;-80
2023/08/13 02:38:36;;;;;;;6.00;5.37;;;;;;;20.26;100.00;156572.56;5027328;28;20584;-80
2023/08/13 02:41:02;;;;;;;6.37;5.77;;;;;;;20.27;100.00;156575.19;5044194;28;20463;-80
2023/08/13 02:43:33;;;;;;;6.47;5.87;;;;;;;20.27;100.00;156575.19;5029254;28;20459;-80
2023/08/13 02:45:59;;;;;;;5.83;5.27;;;;;;;20.27;100.00;156573.88;5029930;28;20764;-80
2023/08/13 02:48:27;;;;;;;6.40;5.80;;;;;;;20.28;100.00;156576.50;5021564;28;20978;-80
2023/08/13 02:50:54;;;;;;;7.07;6.40;;;;;;;20.31;100.00;156585.63;5023873;28;20826;-80
2023/08/13 02:53:20;;;;;;;6.40;5.80;;;;;;;20.32;100.00;156588.25;5028397;28;20455;-80
2023/08/13 02:55:48;;;;;;;8.37;7.13;;;;;;;20.36;100.00;156598.66;5025883;28;20476;-80
2023/08/13 02:58:15;;;;;;;6.30;5.63;;;;;;;20.38;100.00;156603.91;5043813;28;20554;-80
2023/08/13 03:00:42;;;;;;;6.40;5.87;;;;;;;20.39;100.00;156606.47;5014712;28;20486;-80
2023/08/13 03:03:08;;;;;;;6.27;5.67;;;;;;;20.39;100.00;156606.47;5012391;28;20479;-80
2023/08/13 03:05:36;;;;;;;6.33;5.73;;;;;;;20.38;100.00;156603.91;5018276;28;20496;-80
2023/08/13 03:08:03;;;;;;;6.67;5.90;;;;;;;20.38;100.00;156603.91;5024834;28;21543;-80
2023/08/13 03:10:30;;;;;;;6.63;6.03;;;;;;;20.35;100.00;156596.06;5029913;28;20473;-79
2023/08/13 03:12:57;;;;;;;8.43;5.80;;;;;;;20.35;100.00;156594.75;5008187;28;20953;-80
2023/08/13 03:15:23;;;;;;;6.73;6.03;;;;;;;20.34;100.00;156592.13;5043049;28;20491;-79
2023/08/13 03:17:50;;;;;;;7.33;6.23;;;;;;;20.36;100.00;156597.38;5010073;28;20455;-79
2023/08/13 03:20:17;;;;;;;6.70;6.10;;;;;;;20.37;100.00;156599.97;5011990;28;20882;-79
2023/08/13 03:22:45;;;;;;;6.83;6.23;;;;;;;20.35;100.00;156594.75;5029151;28;20447;-80
2023/08/13 03:25:12;;;;;;;8.27;6.73;;;;;;;20.35;100.00;156596.06;5018315;28;20970;-80
2023/08/13 03:27:38;;;;;;;6.90;6.30;;;;;;;20.35;100.00;156594.75;5045223;28;20443;-80
2023/08/13 03:30:09;;;;;;;6.80;6.20;;;;;;;20.34;100.00;156593.44;5026129;28;20455;-80
2023/08/13 03:32:36;;;;;;;7.43;6.73;;;;;;;20.34;100.00;156593.44;5028660;28;20858;-80
2023/08/13 03:35:03;;;;;;;6.83;6.13;;;;;;;20.32;100.00;156586.94;5022272;28;20910;-80
2023/08/13 03:37:30;;;;;;;6.80;6.20;;;;;;;20.31;100.00;156585.63;5004489;28;20435;-80
2023/08/13 03:39:58;;;;;;;7.37;6.77;;;;;;;20.31;100.00;156584.31;5032508;28;20513;-80
2023/08/13 03:42:24;;;;;;;7.50;6.80;;;;;;;20.30;100.00;156583.03;5050843;28;20447;-79
2023/08/13 03:44:52;;;;;;;7.40;6.70;;;;;;;20.29;100.00;156579.09;5031353;28;20455;-80
2023/08/13 03:47:18;;;;;;;12.60;6.50;;;;;;;20.29;100.00;156580.41;5032451;28;20447;-80
2023/08/13 03:49:45;;;;;;;7.50;6.77;;;;;;;20.30;100.00;156583.03;5030473;28;20446;-80
2023/08/13 03:52:11;;;;;;;7.57;6.70;;;;;;;20.34;100.00;156593.44;5050809;28;20549;-79
2023/08/13 03:54:38;;;;;;;7.83;7.03;;;;;;;20.34;100.00;156592.13;5017427;28;20499;-80
2023/08/13 03:57:06;;;;;;;8.00;7.30;;;;;;;20.32;100.00;156588.25;5038495;28;20470;-80
2023/08/13 03:59:33;;;;;;;8.33;7.57;;;;;;;20.30;100.00;156583.03;5024344;28;20462;-81
2023/08/13 04:02:00;;;;;;;8.27;7.47;;;;;;;20.29;100.00;156580.41;5033580;28;20457;-80
2023/08/13 04:04:27;;;;;;;10.47;7.80;;;;;;;20.27;100.00;156575.19;5026114;28;20457;-80
2023/08/13 04:06:54;;;;;;;7.73;6.93;;;;;;;20.26;100.00;156571.25;5014270;28;20450;-79
2023/08/13 04:09:20;;;;;;;8.13;7.33;;;;;;;20.22;100.00;156562.13;5033478;28;20979;-79
2023/08/13 04:11:47;;;;;;;7.27;6.67;;;;;;;20.24;100.00;156567.38;5030106;28;21095;-79
2023/08/13 04:14:15;;;;;;;7.73;7.03;;;;;;;20.25;100.00;156568.69;5020253;28;20463;-79
2023/08/13 04:16:42;;;;;;;8.07;7.23;;;;;;;20.25;100.00;156568.69;5035090;28;20481;-79
2023/08/13 04:19:09;;;;;;;8.73;7.87;;;;;;;20.25;100.00;156570.00;5028505;28;21063;-79
2023/08/13 04:21:36;;;;;;;8.43;7.63;;;;;;;20.26;100.00;156571.25;5032082;28;20447;-80
2023/08/13 04:24:03;;;;;;;8.30;7.50;;;;;;;20.24;100.00;156567.38;5015951;28;20450;-80
2023/08/13 04:26:30;;;;;;;8.03;7.03;;;;;;;20.26;100.00;156572.56;5032086;28;20435;-79
2023/08/13 04:28:58;;;;;;;7.63;6.93;;;;;;;20.28;100.00;156577.78;5050642;28;20463;-79
2023/08/13 04:31:26;;;;;;;9.17;8.37;;;;;;;20.30;100.00;156583.03;5032192;28;21003;-79
2023/08/13 04:33:53;;;;;;;8.00;7.30;;;;;;;20.32;100.00;156588.25;5020107;28;20479;-79
2023/08/13 04:36:20;;;;;;;8.63;7.60;;;;;;;20.31;100.00;156585.63;5019039;28;20850;-79
2023/08/13 04:38:47;;;;;;;8.40;7.70;;;;;;;20.32;100.00;156588.25;5033788;28;20576;-79
2023/08/13 04:41:13;;;;;;;10.30;8.30;;;;;;;20.33;100.00;156589.56;5036671;28;20462;-80
2023/08/13 04:43:42;;;;;;;8.03;7.33;;;;;;;20.34;100.00;156593.44;5025390;28;20984;-80
2023/08/13 04:46:10;;;;;;;8.20;7.40;;;;;;;20.36;100.00;156598.66;5016407;28;21013;-80
2023/08/13 04:48:43;;;;;;;8.30;7.50;;;;;;;20.39;100.00;156605.16;5032994;28;20828;-80
2023/08/13 04:51:11;;;;;;;9.00;8.20;;;;;;;20.39;100.00;156606.47;5039108;28;20464;-80
2023/08/13 04:53:38;;;;;;;8.40;7.67;;;;;;;20.41;100.00;156611.69;5012674;28;20457;-79
2023/08/13 04:56:06;;;;;;;8.37;7.67;;;;;;;20.41;100.00;156611.69;5029753;28;20467;-80
2023/08/13 04:58:32;;;;;;;8.97;8.07;;;;;;;20.42;100.00;156614.31;5030202;28;20466;-79
2023/08/13 05:00:59;;;;;;;7.10;6.47;;;;;;;20.41;100.00;156611.69;5032266;28;20453;-80
2023/08/13 05:03:26;;;;;;;7.90;7.23;;;;;;;20.42;100.00;156614.31;5014747;28;21022;-79
2023/08/13 05:05:54;;;;;;;7.33;6.67;;;;;;;20.41;100.00;156611.69;5027097;28;20458;-80
2023/08/13 05:08:21;;;;;;;8.37;7.67;;;;;;;20.40;100.00;156609.09;5020293;28;20542;-81
2023/08/13 05:10:48;;;;;;;7.37;6.67;;;;;;;20.40;100.00;156607.78;5029578;28;20828;-80
2023/08/13 05:13:15;;;;;;;8.43;7.73;;;;;;;20.40;100.00;156607.78;5050279;28;20541;-80
2023/08/13 05:15:42;;;;;;;8.57;7.67;;;;;;;20.39;100.00;156606.47;5055110;28;20459;-81
2023/08/13 05:18:09;;;;;;;9.63;7.83;;;;;;;20.37;100.00;156601.28;5025943;28;20612;-80
2023/08/13 05:20:36;;;;;;;9.17;8.27;;;;;;;20.36;100.00;156598.66;5033005;28;20551;-79
2023/08/13 05:23:04;;;;;;;8.50;7.70;;;;;;;20.36;100.00;156598.66;5029390;28;20456;-80
2023/08/13 05:25:36;;;;;;;9.10;7.70;;;;;;;20.36;100.00;156598.66;5024718;28;20513;-80
2023/08/13 05:28:03;;;;;;;8.50;7.80;;;;;;;20.34;100.00;156593.44;5027632;28;20588;-80
2023/08/13 05:30:30;;;;;;;8.03;7.23;;;;;;;20.33;100.00;156589.56;5046857;28;20830;-80
2023/08/13 05:32:57;;;;;;;8.43;7.63;;;;;;;20.32;100.00;156588.25;5028758;28;20760;-81
2023/08/13 05:35:23;;;;;;;8.70;7.83;;;;;;;20.28;100.00;156576.50;5027609;28;21902;-80
2023/08/13 05:37:50;;;;;;;8.03;7.30;;;;;;;20.28;100.00;156577.78;5038588;28;20474;-79
2023/08/13 05:40:18;;;;;;;8.77;7.97;;;;;;;20.26;100.00;156572.56;5027389;28;20466;-80
2023/08/13 05:42:46;;;;;;;7.50;6.80;;;;;;;20.26;100.00;156571.25;5023964;28;20467;-80
2023/08/13 05:45:12;;;;;;;9.30;8.40;;;;;;;20.24;100.00;156567.38;5022535;28;20487;-81
2023/08/13 05:47:39;;;;;;;9.00;8.10;;;;;;;20.25;100.00;156570.00;5021829;28;20451;-80
2023/08/13 05:50:06;;;;;;;9.37;8.30;;;;;;;20.26;100.00;156572.56;5043984;28;20459;-80
2023/08/13 05:52:36;;;;;;;8.70;7.90;;;;;;;20.26;100.00;156572.56;5009477;28;20961;-80
2023/08/13 05:55:03;;;;;;;11.97;8.80;;;;;;;20.27;100.00;156573.88;5047408;28;20466;-79
2023/08/13 05:57:31;;;;;;;9.33;8.43;;;;;;;20.27;100.00;156573.88;5038391;28;20820;-80
2023/08/13 05:59:58;;;;;;;9.50;8.70;;;;;;;20.27;100.00;156575.19;5011248;28;20852;-80
2023/08/13 06:02:25;;;;;;;9.23;8.43;;;;;;;20.27;100.00;156573.88;5025130;28;20459;-80
2023/08/13 06:04:52;;;;;;;10.77;9.67;;;;;;;20.28;100.00;156576.50;5028212;28;20562;-80
2023/08/13 06:07:18;;;;;;;11.80;10.67;;;;;;;20.29;100.00;156580.41;5027856;28;20458;-79
2023/08/13 06:09:45;;;;;;;10.53;9.20;;;;;;;20.29;100.00;156580.41;5008879;28;20466;-80
2023/08/13 06:12:12;;;;;;;10.70;9.70;;;;;;;20.31;100.00;156584.31;5039233;28;20463;-80
2023/08/13 06:14:39;;;;;;;12.00;10.80;;;;;;;20.33;100.00;156590.81;5028728;28;20771;-79
2023/08/13 06:17:06;;;;;;;10.80;9.70;;;;;;;20.34;100.00;156593.44;5028477;28;20554;-81
2023/08/13 06:19:33;;;;;;;11.13;10.03;;;;;;;20.37;100.00;156601.28;5027294;28;20841;-81
2023/08/13 06:21:59;;;;;;;10.57;9.20;;;;;;;20.37;100.00;156601.28;5028606;28;20455;-81
2023/08/13 06:24:26;;;;;;;11.60;10.60;;;;;;;20.37;100.00;156601.28;5042782;28;20800;-78
2023/08/13 06:26:52;;;;;;;11.13;10.03;;;;;;;20.40;100.00;156607.78;5045840;28;20449;-78
2023/08/13 06:29:19;;;;;;;11.30;10.20;;;;;;;20.41;100.00;156611.69;5009156;28;20459;-78
2023/08/13 06:31:47;;;;;;;13.37;12.07;;;;;;;20.42;100.00;156614.31;5022590;28;20463;-78
2023/08/13 06:34:14;;;;;;;15.47;10.70;;;;;;;20.43;100.00;156616.94;5045958;28;20478;-78
2023/08/13 06:36:41;;;;;;;14.03;12.67;;;;;;;20.47;100.00;156626.03;5026891;28;20482;-78
2023/08/13 06:39:08;;;;;;;11.70;10.60;;;;;;;20.48;100.00;156629.97;5046710;28;20594;-79
2023/08/13 06:41:34;;;;;;;12.20;11.00;;;;;;;20.53;100.00;156641.72;5039021;28;20462;-79
2023/08/13 06:44:04;;;;;;;12.43;11.13;;;;;;;20.56;100.00;156649.53;5029242;28;20561;-79
2023/08/13 06:46:30;;;;;;;11.90;10.80;;;;;;;20.58;100.00;156656.06;5038161;28;20439;-78
2023/08/13 06:48:58;;;;;;;11.93;10.80;;;;;;;20.58;100.00;156656.06;5028163;28;20953;-79
2023/08/13 06:51:25;;;;;;;11.63;10.53;;;;;;;20.59;100.00;156657.38;5040956;28;20459;-79
2023/08/13 06:53:51;;;;;;;13.27;11.60;;;;;;;20.58;100.00;156654.75;5044847;28;20455;-79
2023/08/13 06:56:18;;;;;;;13.30;11.90;;;;;;;20.59;100.00;156657.38;5042671;28;20470;-79
2023/08/13 06:58:44;;;;;;;13.73;12.43;;;;;;;20.57;100.00;156653.44;5027449;28;20886;-79
2023/08/13 07:01:11;;;;;;;12.03;11.00;;;;;;;20.55;100.00;156648.22;5025666;28;20813;-78
2023/08/13 07:03:37;;;;;;;10.77;9.77;;;;;;;20.55;100.00;156648.22;5028178;28;20450;-78
2023/08/13 07:06:05;;;;;;;10.83;9.83;;;;;;;20.57;100.00;156653.44;5016629;28;20498;-78
2023/08/13 07:08:32;;;;;;;10.30;9.40;;;;;;;20.58;100.00;156654.75;5046364;28;20540;-80
2023/08/13 07:10:59;;;;;;;10.53;9.53;;;;;;;20.57;100.00;156653.44;5030487;28;20459;-79
2023/08/13 07:13:25;;;;;;;10.50;9.60;;;;;;;20.61;100.00;156663.91;5047407;28;20493;-80
2023/08/13 07:15:53;;;;;;;10.57;9.57;;;;;;;20.61;100.00;156662.59;5042899;28;20459;-80
2023/08/13 07:18:19;;;;;;;8.93;8.03;;;;;;;20.63;100.00;156667.78;5047506;28;20481;-81
2023/08/13 07:20:46;;;;;;;10.23;9.23;;;;;;;20.65;100.00;156674.31;5050699;28;21030;-76
2023/08/13 07:23:14;;;;;;;10.40;9.50;;;;;;;20.65;100.00;156674.31;5023951;28;20520;-75
2023/08/13 07:25:40;;;;;;;10.20;9.30;;;;;;;20.63;100.00;156669.09;5044950;28;20477;-76
2023/08/13 07:28:07;;;;;;;10.17;9.27;;;;;;;20.69;100.00;156683.47;5026506;28;20466;-75
2023/08/13 07:30:33;;;;;;;9.73;8.83;;;;;;;20.74;100.00;156695.19;5025592;28;20446;-75
2023/08/13 07:33:00;;;;;;;10.00;9.10;;;;;;;20.76;100.00;156700.44;5025624;28;21095;-75
2023/08/13 07:35:27;;;;;;;10.33;9.37;;;;;;;20.73;100.00;156692.63;5045404;28;20520;-76
2023/08/13 07:37:53;;;;;;;9.43;8.53;;;;;;;20.72;100.00;156691.28;5027740;28;20557;-76
2023/08/13 07:40:21;;;;;;;9.40;8.60;;;;;;;20.72;100.00;156689.97;5035719;28;20532;-76
2023/08/13 07:42:48;;;;;;;10.03;9.13;;;;;;;20.72;100.00;156689.97;5027160;28;20451;-81
2023/08/13 07:45:15;;;;;;;9.50;8.60;;;;;;;20.73;100.00;156692.63;5043023;28;20464;-80
2023/08/13 07:47:41;;;;;;;10.60;9.60;;;;;;;20.74;100.00;156695.19;5046448;28;20453;-81
2023/08/13 07:50:08;;;;;;;10.57;9.57;;;;;;;20.74;100.00;156696.50;5030457;28;20528;-81
2023/08/13 07:52:35;;;;;;;9.40;8.50;;;;;;;20.76;100.00;156700.44;5045581;28;20508;-81
2023/08/13 07:55:02;;;;;;;10.70;9.60;;;;;;;20.80;100.00;156710.84;5044547;28;20834;-80
2023/08/13 07:57:30;;;;;;;10.10;9.20;;;;;;;20.86;100.00;156726.53;5027892;28;20473;-80
2023/08/13 07:59:57;;;;;;;9.80;8.90;;;;;;;20.90;100.00;156736.94;5043416;28;20450;-81
2023/08/13 08:02:24;;;;;;;9.97;9.07;;;;;;;20.99;100.00;156761.75;5045827;28;20517;-81
2023/08/13 08:04:50;;;;;;;9.20;8.40;;;;;;;21.04;100.00;156773.50;5025218;28;20546;-81
2023/08/13 08:07:18;;;;;;;8.13;7.43;;;;;;;21.16;100.00;156804.84;5024325;28;20817;-81
2023/08/13 08:09:45;;;;;;;9.20;8.50;;;;;;;21.21;100.00;156819.22;5043126;28;20557;-81
2023/08/13 08:12:11;;;;;;;8.10;7.40;;;;;;;21.21;100.00;156817.91;5043295;28;20454;-80
2023/08/13 08:14:39;;;;;;;8.13;7.33;;;;;;;21.30;100.00;156840.09;5026141;28;20451;-80
2023/08/13 08:17:07;;;;;;;7.30;6.70;;;;;;;21.34;100.00;156851.81;5013746;28;20482;-79
2023/08/13 08:19:33;;;;;;;7.93;7.17;;;;;;;21.29;100.00;156838.78;5040360;28;21127;-79
2023/08/13 08:22:00;;;;;;;9.13;7.70;;;;;;;21.24;100.00;156825.72;5034084;28;20470;-79
2023/08/13 08:24:27;;;;;;;8.40;7.63;;;;;;;21.32;100.00;156846.63;5037831;28;21020;-79
2023/08/13 08:26:53;;;;;;;7.90;7.10;;;;;;;21.29;100.00;156838.78;5046411;28;20463;-79
2023/08/13 08:29:20;;;;;;;9.17;8.37;;;;;;;21.35;100.00;156854.44;5032064;28;20512;-79
2023/08/13 08:31:47;;;;;;;8.10;7.30;;;;;;;21.35;100.00;156854.44;5032708;28;20462;-80
2023/08/13 08:34:14;;;;;;;8.23;7.43;;;;;;;21.40;100.00;156867.50;5027418;28;20482;-80
2023/08/13 08:36:41;;;;;;;8.43;7.63;;;;;;;21.42;100.00;156871.44;5041747;28;20458;-80
2023/08/13 08:39:08;;;;;;;9.37;8.57;;;;;;;21.45;100.00;156880.53;5047602;28;20462;-80
2023/08/13 08:41:37;;;;;;;9.10;8.30;;;;;;;21.51;100.00;156896.22;5046888;28;20466;-80
2023/08/13 08:44:04;;;;;;;9.63;8.73;;;;;;;21.52;100.00;156898.84;5046160;28;21410;-80
2023/08/13 08:46:31;;;;;;;7.40;6.80;;;;;;;21.52;100.00;156897.53;5046657;28;20973;-80
2023/08/13 08:49:00;;;;;;;7.10;6.50;;;;;;;21.42;100.00;156872.72;5045370;28;20462;-80
2023/08/13 08:51:27;;;;;;;7.60;6.90;;;;;;;21.53;100.00;156900.13;5046894;28;20454;-80
2023/08/13 08:53:54;;;;;;;7.60;7.00;;;;;;;21.53;100.00;156900.13;5046156;28;20463;-79
2023/08/13 08:56:22;;;;;;;7.17;6.53;;;;;;;21.52;100.00;156897.53;5046440;28;20459;-79
2023/08/13 08:58:49;;;;;;;7.43;6.73;;;;;;;21.56;100.00;156907.97;5028455;28;20478;-80
2023/08/13 09:01:16;;;;;;;12.40;7.83;;;;;;;21.67;100.00;156938.00;5047279;28;20443;-79
2023/08/13 09:03:42;;;;;;;9.17;8.37;;;;;;;21.82;100.00;156977.16;5044080;28;20539;-79
2023/08/13 09:06:10;;;;;;;7.30;6.60;;;;;;;21.82;100.00;156977.16;5028690;28;20458;-78
2023/08/13 09:08:37;;;;;;;7.40;6.70;;;;;;;21.86;100.00;156986.38;5047352;28;20462;-78
2023/08/13 09:11:04;;;;;;;7.63;6.93;;;;;;;21.87;100.00;156988.94;5046382;28;20536;-77
2023/08/13 09:13:31;;;;;;;7.50;6.80;;;;;;;21.94;100.00;157005.94;5029122;28;20481;-77
2023/08/13 09:15:57;;;;;;;7.33;6.73;;;;;;;22.07;100.00;157041.22;5047068;28;20787;-77
2023/08/13 09:18:24;;;;;;;9.23;7.57;;;;;;;22.19;100.00;157071.22;5046390;28;20497;-77
2023/08/13 09:20:50;;;;;;;7.20;6.60;;;;;;;22.19;100.00;157071.22;5046662;28;20459;-76
2023/08/13 09:23:22;;;;;;;7.60;6.70;;;;;;;22.35;100.00;157113.00;5047004;28;20466;-77
2023/08/13 09:25:52;;;;;;;8.27;7.57;;;;;;;22.35;100.00;157114.31;5045793;28;20451;-76
2023/08/13 09:28:19;;;;;;;7.70;7.00;;;;;;;22.42;100.00;157131.31;5040091;28;20473;-77
2023/08/13 09:30:45;;;;;;;8.17;7.37;;;;;;;22.39;100.00;157123.47;5046515;28;20466;-77
2023/08/13 09:33:14;;;;;;;7.73;6.40;;;;;;;22.44;100.00;157136.53;5028603;28;20483;-77
2023/08/13 09:35:41;;;;;;;7.97;6.33;;;;;;;22.50;100.00;157152.22;5044021;28;21007;-77
2023/08/13 09:38:08;;;;;;;7.00;6.23;;;;;;;22.56;100.00;157167.88;5027250;28;20475;-77
2023/08/13 09:40:36;;;;;;;7.30;6.60;;;;;;;22.69;100.00;157201.88;5037494;28;20445;-77
2023/08/13 09:43:06;;;;;;;7.93;5.73;;;;;;;22.76;100.00;157220.22;5046111;28;21121;-77
2023/08/13 09:45:34;;;;;;;5.60;5.10;;;;;;;22.79;100.00;157228.06;5029555;28;20435;-77
2023/08/13 09:48:04;;;;;;;7.47;6.77;;;;;;;23.09;100.00;157303.84;5046817;28;20451;-77
2023/08/13 09:50:34;;;;;;;6.97;6.33;;;;;;;23.21;100.00;157335.19;5048079;28;20463;-76
2023/08/13 09:53:03;;;;;;;7.90;6.40;;;;;;;23.23;100.00;157341.72;5027759;28;20451;-77
2023/08/13 09:55:33;;;;;;;6.47;5.90;;;;;;;23.30;100.00;157358.72;5046362;28;20455;-77
2023/08/13 09:58:02;;;;;;;7.47;6.17;;;;;;;23.29;100.00;157357.41;5044079;28;20868;-77
2023/08/13 10:00:28;;;;;;;6.00;5.50;;;;;;;23.36;100.00;157374.38;5046197;28;20812;-77
2023/08/13 10:02:55;;;;;;;5.90;5.40;;;;;;;23.45;100.00;157397.97;5028286;28;20455;-77
2023/08/13 10:05:22;;;;;;;6.10;5.50;;;;;;;23.59;100.00;157434.53;5029089;28;20451;-76
2023/08/13 10:07:48;;;;;;;5.67;5.17;;;;;;;23.73;100.00;157471.16;5028768;28;20455;-76
2023/08/13 10:10:16;;;;;;;5.60;5.10;;;;;;;23.75;100.00;157476.38;5028179;28;20501;-75
2023/08/13 10:12:43;;;;;;;7.67;5.80;;;;;;;23.79;100.00;157486.88;5045900;28;20459;-75
2023/08/13 10:15:11;;;;;;;7.10;6.40;;;;;;;23.82;100.00;157494.72;5025702;28;20466;-77
2023/08/13 10:21:06;;;;;;;6.07;5.53;;;;;;;23.98;100.00;157535.25;5041210;28;20458;-78
2023/08/13 10:23:35;;;;;;;6.53;5.93;;;;;;;23.98;100.00;157536.56;5045572;28;20504;-78
2023/08/13 10:26:02;;;;;;;6.57;5.83;;;;;;;24.10;100.00;157567.97;5002448;28;20837;-78
2023/08/13 10:28:30;;;;;;;6.10;5.60;;;;;;;24.08;100.00;157562.75;5043366;28;20442;-78
2023/08/13 10:31:27;;;;;;;5.93;5.33;;;;;;;24.10;100.00;157567.97;5050225;28;20458;-83
2023/08/13 10:34:10;;;;;;;6.00;5.50;;;;;;;24.20;100.00;157594.09;5045163;28;20481;-83
2023/08/13 10:36:50;;;;;;;6.33;5.73;;;;;;;24.31;100.00;157620.25;5009877;28;20470;-83
2023/08/13 10:39:31;;;;;;;6.90;5.90;;;;;;;24.38;100.00;157639.91;5043326;28;20620;-83
2023/08/13 10:41:57;;;;;;;6.20;5.60;;;;;;;24.45;100.00;157656.91;5045985;28;20454;-84
2023/08/13 10:44:28;;;;;;;6.80;6.20;;;;;;;24.34;100.00;157629.44;5024498;28;21084;-84
2023/08/13 10:46:56;;;;;;;5.73;5.23;;;;;;;24.25;100.00;157605.91;5035685;28;20455;-84
2023/08/13 10:49:23;;;;;;;6.00;5.50;;;;;;;24.20;100.00;157592.78;5044218;28;20474;-86
2023/08/13 10:51:50;;;;;;;6.70;5.40;;;;;;;24.22;100.00;157599.31;5025109;28;21008;-85
2023/08/13 10:54:17;;;;;;;7.33;6.30;;;;;;;24.19;100.00;157591.53;5046090;28;20451;-86
2023/08/13 10:56:45;;;;;;;6.30;5.70;;;;;;;24.29;100.00;157616.34;5048371;28;20455;-86
2023/08/13 10:59:11;;;;;;;7.13;6.50;;;;;;;24.36;100.00;157633.38;5028245;28;20519;-87
2023/08/13 11:02:15;;;;;;;6.03;5.53;;;;;;;24.41;100.00;157647.72;5033661;28;20461;-88
2023/08/13 11:04:43;;;;;;;8.43;5.87;;;;;;;24.49;100.00;157667.38;5025522;28;20470;-87
2023/08/13 11:07:11;;;;;;;5.80;5.30;;;;;;;24.66;99.57;157711.84;5014454;28;20451;-88
2023/08/13 11:09:38;;;;;;;6.13;5.63;;;;;;;24.68;98.62;157717.06;5047612;28;20783;-88
2023/08/13 11:12:06;;;;;;;6.13;5.57;;;;;;;24.69;97.57;157721.00;5027130;28;20459;-88
2023/08/13 11:14:32;;;;;;;6.13;5.50;;;;;;;24.70;98.99;157722.31;5049389;28;20486;-89
2023/08/13 11:16:59;;;;;;;6.13;5.57;;;;;;;24.81;99.54;157751.13;5032498;28;20508;-89
2023/08/13 11:19:27;;;;;;;6.50;5.90;;;;;;;24.90;98.99;157774.69;5026246;28;21939;-89